Time;durP1;ratioP1;P1;durP2;ratioP2;P2;SDS_P1;SDS_P2;PMS_P1;PMS_P2;Temp;Humidity;BMP_temperature;BMP_pressure;BME280_temperature;BME280_humidity;BME280_pressure;Samples;Min_cycle;Max_cycle;Signal;HPM_P1;HPM_P2
2022/01/01 00:02:04;;;;;;;;;;;;;;;13.42;75.58;102258.41;5050391;28;19927;-69
2022/01/01 00:04:30;;;;;;;;;;;;;;;13.41;75.59;102264.25;5044503;28;19964;-69
2022/01/01 00:06:55;;;;;;;;;;;;;;;13.40;76.06;102268.97;5044923;28;19985;-69
2022/01/01 00:09:20;;;;;;;;;;;;;;;13.39;75.91;102272.00;5048189;28;19932;-70
2022/01/01 00:11:45;;;;;;;;;;;;;;;13.39;75.70;102284.00;5047359;28;19928;-70
2022/01/01 00:14:10;;;;;;;;;;;;;;;13.40;75.67;102282.94;5048537;28;19925;-69
2022/01/01 00:16:36;;;;;;;;;;;;;;;13.40;75.64;102277.34;5047254;28;19921;-69
2022/01/01 00:19:01;;;;;;;;;;;;;;;13.41;75.70;102287.41;5046085;28;19978;-70
2022/01/01 00:21:26;;;;;;;;;;;;;;;13.41;75.82;102281.00;5046315;28;20268;-69
2022/01/01 00:23:51;;;;;;;;;;;;;;;13.41;75.76;102275.41;5045616;28;20300;-70
2022/01/01 00:26:16;;;;;;;;;;;;;;;13.38;75.79;102285.09;5047710;28;19968;-69
2022/01/01 00:28:42;;;;;;;;;;;;;;;13.39;75.82;102280.34;5049107;28;20043;-69
2022/01/01 00:31:07;;;;;;;;;;;;;;;13.37;75.80;102290.91;5043741;28;19921;-69
2022/01/01 00:33:32;;;;;;;;;;;;;;;13.38;75.94;102287.88;5047841;28;20365;-68
2022/01/01 00:35:57;;;;;;;;;;;;;;;13.37;75.97;102291.75;5048493;28;19917;-69
2022/01/01 00:38:23;;;;;;;;;;;;;;;13.36;75.67;102287.28;5050468;28;20029;-69
2022/01/01 00:40:48;;;;;;;;;;;;;;;13.35;75.84;102282.75;5047948;28;20011;-69
2022/01/01 00:43:13;;;;;;;;;;;;;;;13.37;75.95;102283.41;5044961;28;19967;-69
2022/01/01 00:45:38;;;;;;;;;;;;;;;13.35;75.85;102277.19;5045313;28;19921;-69
2022/01/01 00:48:04;;;;;;;;;;;;;;;13.35;75.97;102274.41;5047110;28;19962;-69
2022/01/01 00:50:29;;;;;;;;;;;;;;;13.35;76.10;102263.25;5042374;28;20019;-69
2022/01/01 00:52:54;;;;;;;;;;;;;;;13.36;76.16;102270.53;5043186;28;19932;-69
2022/01/01 00:55:20;;;;;;;;;;;;;;;13.36;76.04;102266.88;5045213;28;19921;-69
2022/01/01 00:57:45;;;;;;;;;;;;;;;13.35;75.97;102273.56;5051196;28;19920;-70
2022/01/01 01:00:10;;;;;;;;;;;;;;;13.33;75.96;102276.59;5045389;28;19994;-69
2022/01/01 01:02:36;;;;;;;;;;;;;;;13.32;75.85;102277.66;5050609;28;20442;-69
2022/01/01 01:05:01;;;;;;;;;;;;;;;13.33;76.14;102284.13;5044387;28;19928;-69
2022/01/01 01:07:26;;;;;;;;;;;;;;;13.35;75.90;102281.91;5039095;28;19921;-69
2022/01/01 01:09:51;;;;;;;;;;;;;;;13.35;75.80;102281.91;5047655;28;19925;-69
2022/01/01 01:12:22;;;;;;;;;;;;;;;13.36;75.89;102283.63;5047220;28;20000;-69
2022/01/01 01:14:48;;;;;;;;;;;;;;;13.35;76.16;102281.91;5048035;28;19921;-69
2022/01/01 01:17:13;;;;;;;;;;;;;;;13.35;75.92;102288.34;5049590;28;20807;-69
2022/01/01 01:19:38;;;;;;;;;;;;;;;13.35;75.93;102279.97;5041234;28;19924;-69
2022/01/01 01:22:04;;;;;;;;;;;;;;;13.36;75.75;102280.81;5038844;28;19925;-67
2022/01/01 01:24:29;;;;;;;;;;;;;;;13.35;76.14;102276.34;5045103;28;19924;-69
2022/01/01 01:26:59;;;;;;;;;;;;;;;13.35;75.85;102282.75;5039627;28;19940;-69
2022/01/01 01:29:25;;;;;;;;;;;;;;;13.35;76.18;102290.28;5041151;28;19944;-70
2022/01/01 01:31:50;;;;;;;;;;;;;;;13.34;75.94;102286.66;5040092;28;20279;-71
2022/01/01 01:34:15;;;;;;;;;;;;;;;13.33;76.05;102284.13;5047797;28;19917;-71
2022/01/01 01:36:40;;;;;;;;;;;;;;;13.33;76.02;102295.25;5043396;28;19979;-71
2022/01/01 01:39:05;;;;;;;;;;;;;;;13.32;75.96;102288.81;5043741;28;20554;-71
2022/01/01 01:41:31;;;;;;;;;;;;;;;13.33;76.21;102296.13;5050554;28;20019;-71
2022/01/01 01:43:57;;;;;;;;;;;;;;;13.34;76.03;102296.97;5045382;28;19921;-71
2022/01/01 01:46:23;;;;;;;;;;;;;;;13.32;75.91;102305.53;5047110;28;19919;-71
2022/01/01 01:48:48;;;;;;;;;;;;;;;13.31;75.90;102303.84;5047608;28;19921;-71
2022/01/01 01:51:14;;;;;;;;;;;;;;;13.31;75.86;102312.22;5048631;28;19917;-71
2022/01/01 01:53:39;;;;;;;;;;;;;;;13.32;76.01;102304.69;5045941;28;19928;-71
2022/01/01 01:56:04;;;;;;;;;;;;;;;13.31;76.23;102309.44;5049870;28;19932;-71
2022/01/01 01:58:30;;;;;;;;;;;;;;;13.32;76.45;102316.69;5052330;28;19920;-71
2022/01/01 02:03:20;;;;;;;;;;;;;;;13.34;76.42;102314.53;5050617;28;19924;-71
2022/01/01 02:05:47;;;;;;;;;;;;;;;13.33;75.95;102312.84;5052517;28;20050;-71
2022/01/01 02:08:12;;;;;;;;;;;;;;;13.35;76.26;102307.03;5055252;28;19944;-71
2022/01/01 02:10:39;;;;;;;;;;;;;;;13.34;76.14;102305.31;5052697;28;19928;-71
2022/01/01 02:13:16;;;;;;;;;;;;;;;13.34;76.16;102308.97;5054725;28;20304;-71
2022/01/01 02:18:06;;;;;;;;;;;;;;;13.33;76.22;102315.63;5045721;28;20012;-71
2022/01/01 02:20:32;;;;;;;;;;;;;;;13.32;76.00;102311.13;5053220;28;19920;-71
2022/01/01 02:23:00;;;;;;;;;;;;;;;13.32;76.35;102297.19;5050376;28;20034;-71
2022/01/01 02:25:25;;;;;;;;;;;;;;;13.31;76.22;102303.00;5055078;28;19921;-71
2022/01/01 02:27:51;;;;;;;;;;;;;;;13.30;76.42;102299.38;5053723;28;19935;-71
2022/01/01 02:30:16;;;;;;;;;;;;;;;13.32;76.44;102293.53;5048379;28;19962;-71
2022/01/01 02:32:41;;;;;;;;;;;;;;;13.31;76.36;102295.47;5052134;28;19936;-71
2022/01/01 02:35:08;;;;;;;;;;;;;;;13.32;76.20;102297.19;5051678;28;19921;-71
2022/01/01 02:37:37;;;;;;;;;;;;;;;13.32;76.36;102311.13;5052729;28;19917;-70
2022/01/01 02:40:03;;;;;;;;;;;;;;;13.31;76.32;102298.28;5048081;28;19921;-71
2022/01/01 02:42:28;;;;;;;;;;;;;;;13.30;76.41;102295.72;5049024;28;19924;-71
2022/01/01 02:44:54;;;;;;;;;;;;;;;13.29;76.48;102302.41;5047532;28;19921;-71
2022/01/01 02:47:19;;;;;;;;;;;;;;;13.29;75.97;102310.78;5053425;28;20019;-72
2022/01/01 02:49:44;;;;;;;;;;;;;;;13.28;76.07;102304.31;5050193;28;19920;-72
2022/01/01 02:52:10;;;;;;;;;;;;;;;13.28;76.43;102295.94;5051426;28;20039;-72
2022/01/01 02:54:35;;;;;;;;;;;;;;;13.28;76.44;102287.59;5049239;28;19920;-72
2022/01/01 02:57:00;;;;;;;;;;;;;;;13.27;76.40;102289.53;5053903;28;19924;-72
2022/01/01 02:59:25;;;;;;;;;;;;;;;13.29;76.18;102280.94;5052134;28;20291;-72
2022/01/01 03:01:51;;;;;;;;;;;;;;;13.31;76.16;102275.13;5053488;28;20407;-71
2022/01/01 03:04:16;;;;;;;;;;;;;;;13.30;75.94;102263.13;5049529;28;19974;-72
2022/01/01 03:06:41;;;;;;;;;;;;;;;13.29;76.11;102261.41;5051966;28;19920;-72
2022/01/01 03:09:08;;;;;;;;;;;;;;;13.30;76.08;102267.84;5045058;28;21274;-72
2022/01/01 03:11:33;;;;;;;;;;;;;;;13.30;76.02;102276.22;5054096;28;19921;-71
2022/01/01 03:13:58;;;;;;;;;;;;;;;13.31;76.17;102275.13;5047907;28;20008;-72
2022/01/01 03:16:23;;;;;;;;;;;;;;;13.33;76.06;102278.53;5051588;28;19943;-72
2022/01/01 03:18:49;;;;;;;;;;;;;;;13.32;76.29;102276.81;5051088;28;19928;-72
2022/01/01 03:21:14;;;;;;;;;;;;;;;13.33;76.22;102276.59;5052805;28;19971;-72
2022/01/01 03:23:39;;;;;;;;;;;;;;;13.34;76.06;102275.50;5051921;28;19921;-72
2022/01/01 03:26:04;;;;;;;;;;;;;;;13.30;76.04;102271.47;5049708;28;19929;-72
2022/01/01 03:28:30;;;;;;;;;;;;;;;13.27;76.46;102270.00;5052137;28;19917;-72
2022/01/01 03:30:55;;;;;;;;;;;;;;;13.27;76.18;102269.16;5052218;28;19974;-72
2022/01/01 03:33:20;;;;;;;;;;;;;;;13.26;76.26;102268.31;5052281;28;19971;-72
2022/01/01 03:35:48;;;;;;;;;;;;;;;13.29;76.35;102269.78;5049359;28;19971;-72
2022/01/01 03:38:13;;;;;;;;;;;;;;;13.30;76.09;102268.69;5052214;28;19921;-72
2022/01/01 03:40:38;;;;;;;;;;;;;;;13.30;76.39;102267.84;5050793;28;19940;-72
2022/01/01 03:43:03;;;;;;;;;;;;;;;13.32;76.22;102265.66;5047537;28;19921;-72
2022/01/01 03:45:28;;;;;;;;;;;;;;;13.31;76.25;102263.97;5050492;28;20356;-72
2022/01/01 03:47:54;;;;;;;;;;;;;;;13.32;76.25;102260.91;5047083;28;19931;-72
2022/01/01 03:50:19;;;;;;;;;;;;;;;13.32;76.00;102260.91;5050394;28;20046;-72
2022/01/01 03:52:45;;;;;;;;;;;;;;;13.32;76.35;102265.66;5050512;28;19963;-72
2022/01/01 03:55:11;;;;;;;;;;;;;;;13.30;76.08;102257.53;5049847;28;20372;-72
2022/01/01 03:57:36;;;;;;;;;;;;;;;13.28;75.70;102259.69;5051134;28;19921;-72
2022/01/01 04:00:02;;;;;;;;;;;;;;;13.27;75.81;102253.28;5048615;28;20269;-72
2022/01/01 04:02:27;;;;;;;;;;;;;;;13.28;76.10;102259.69;5051482;28;19964;-72
2022/01/01 04:04:52;;;;;;;;;;;;;;;13.29;75.83;102255.00;5051883;28;19924;-72
2022/01/01 04:07:18;;;;;;;;;;;;;;;13.30;76.26;102263.13;5045155;28;20011;-72
2022/01/01 04:09:43;;;;;;;;;;;;;;;13.29;75.74;102261.41;5051304;28;19924;-72
2022/01/01 04:12:08;;;;;;;;;;;;;;;13.27;75.77;102266.38;5044464;28;19960;-72
2022/01/01 04:14:33;;;;;;;;;;;;;;;13.27;75.89;102258.00;5050975;28;19917;-72
2022/01/01 04:16:58;;;;;;;;;;;;;;;13.27;75.71;102255.22;5047577;28;19924;-72
2022/01/01 04:19:33;;;;;;;;;;;;;;;13.27;75.81;102258.00;5042821;28;20354;-72
2022/01/01 04:21:58;;;;;;;;;;;;;;;13.29;76.14;102261.41;5052716;28;19985;-72
2022/01/01 04:24:23;;;;;;;;;;;;;;;13.28;75.69;102254.13;5045108;28;19925;-72
2022/01/01 04:26:49;;;;;;;;;;;;;;;13.27;75.73;102255.22;5052239;28;19929;-72
2022/01/01 04:29:14;;;;;;;;;;;;;;;13.27;75.73;102247.69;5045189;28;19979;-72
2022/01/01 04:31:41;;;;;;;;;;;;;;;13.27;75.56;102253.28;5049008;28;19921;-72
2022/01/01 04:34:06;;;;;;;;;;;;;;;13.29;75.90;102260.56;5037683;28;19983;-72
2022/01/01 04:36:32;;;;;;;;;;;;;;;13.29;75.82;102257.78;5050793;28;19920;-73
2022/01/01 04:38:57;;;;;;;;;;;;;;;13.30;76.02;102259.47;5050506;28;19924;-72
2022/01/01 04:41:22;;;;;;;;;;;;;;;13.31;76.01;102266.75;5050946;28;19952;-72
2022/01/01 04:43:47;;;;;;;;;;;;;;;13.32;75.85;102265.66;5050608;28;19979;-72
2022/01/01 04:46:13;;;;;;;;;;;;;;;13.32;75.73;102262.88;5051279;28;20002;-72
2022/01/01 04:48:40;;;;;;;;;;;;;;;13.33;75.75;102268.22;5050780;28;19974;-72
2022/01/01 04:51:09;;;;;;;;;;;;;;;13.33;75.46;102276.59;5049067;28;19920;-72
2022/01/01 04:53:35;;;;;;;;;;;;;;;13.33;75.47;102275.75;5051635;28;20385;-72
2022/01/01 04:56:04;;;;;;;;;;;;;;;13.30;75.41;102277.06;5051575;28;20019;-72
2022/01/01 04:58:29;;;;;;;;;;;;;;;13.29;75.77;102283.72;5044133;28;19921;-72
2022/01/01 05:00:54;;;;;;;;;;;;;;;13.31;75.72;102275.13;5044547;28;19921;-72
2022/01/01 05:03:19;;;;;;;;;;;;;;;13.32;75.58;102276.81;5050856;28;19921;-72
2022/01/01 05:05:45;;;;;;;;;;;;;;;13.33;75.46;102278.53;5050500;28;19960;-72
2022/01/01 05:08:10;;;;;;;;;;;;;;;13.33;75.60;102284.97;5045672;28;19966;-72
2022/01/01 05:10:35;;;;;;;;;;;;;;;13.31;75.23;102281.53;5048456;28;19917;-72
2022/01/01 05:13:00;;;;;;;;;;;;;;;13.30;75.42;102282.63;5050764;28;20387;-72
2022/01/01 05:15:25;;;;;;;;;;;;;;;13.30;75.16;102291.00;5049840;28;19921;-72
2022/01/01 05:17:50;;;;;;;;;;;;;;;13.30;75.38;102279.84;5051384;28;19925;-72
2022/01/01 05:20:16;;;;;;;;;;;;;;;13.31;75.31;102283.47;5055242;28;19920;-72
2022/01/01 05:22:41;;;;;;;;;;;;;;;13.31;75.50;102291.84;5053880;28;20062;-72
2022/01/01 05:25:06;;;;;;;;;;;;;;;13.31;75.22;102295.47;5050962;28;19951;-72
2022/01/01 05:27:34;;;;;;;;;;;;;;;13.30;75.27;102296.56;5048561;28;19921;-72
2022/01/01 05:30:00;;;;;;;;;;;;;;;13.31;75.45;102297.41;5046039;28;19928;-73
2022/01/01 05:32:26;;;;;;;;;;;;;;;13.30;75.18;102295.72;5055581;28;19921;-72
2022/01/01 05:34:51;;;;;;;;;;;;;;;13.30;75.21;102298.53;5049699;28;20356;-72
2022/01/01 05:37:16;;;;;;;;;;;;;;;13.30;75.58;102287.38;5055057;28;20391;-72
2022/01/01 05:39:41;;;;;;;;;;;;;;;13.27;75.52;102291.47;5053674;28;19924;-72
2022/01/01 05:42:07;;;;;;;;;;;;;;;13.27;75.19;102292.31;5047037;28;20390;-72
2022/01/01 05:44:33;;;;;;;;;;;;;;;13.29;75.48;102280.94;5050490;28;19928;-72
2022/01/01 05:46:58;;;;;;;;;;;;;;;13.27;75.24;102297.88;5054874;28;19924;-72
2022/01/01 05:49:23;;;;;;;;;;;;;;;13.27;75.11;102297.88;5055096;28;19920;-72
2022/01/01 05:51:48;;;;;;;;;;;;;;;13.27;75.59;102288.69;5053717;28;20390;-72
2022/01/01 05:54:13;;;;;;;;;;;;;;;13.27;75.06;102285.88;5054010;28;19931;-72
2022/01/01 05:56:38;;;;;;;;;;;;;;;13.27;75.42;102295.09;5054212;28;20326;-72
2022/01/01 05:59:04;;;;;;;;;;;;;;;13.27;75.19;102286.72;5048636;28;19928;-72
2022/01/01 06:01:29;;;;;;;;;;;;;;;13.27;75.28;102285.88;5053845;28;19921;-72
2022/01/01 06:03:54;;;;;;;;;;;;;;;13.27;75.03;102278.38;5053416;28;19970;-72
2022/01/01 06:06:20;;;;;;;;;;;;;;;13.28;74.89;102276.44;5054529;28;19921;-72
2022/01/01 06:08:45;;;;;;;;;;;;;;;13.28;75.18;102276.44;5053578;28;20078;-72
2022/01/01 06:11:10;;;;;;;;;;;;;;;13.27;75.00;102274.72;5048345;28;19928;-72
2022/01/01 06:13:35;;;;;;;;;;;;;;;13.23;74.77;102263.19;5051345;28;19958;-73
2022/01/01 06:16:00;;;;;;;;;;;;;;;13.25;75.28;102268.56;5043252;28;19925;-72
2022/01/01 06:18:25;;;;;;;;;;;;;;;13.26;74.91;102273.03;5053065;28;19987;-72
2022/01/01 06:20:51;;;;;;;;;;;;;;;13.22;75.05;102267.06;5044463;28;20277;-72
2022/01/01 06:23:16;;;;;;;;;;;;;;;13.20;75.04;102258.09;5053912;28;19984;-72
2022/01/01 06:25:41;;;;;;;;;;;;;;;13.20;74.84;102265.56;5054536;28;19970;-72
2022/01/01 06:28:06;;;;;;;;;;;;;;;13.19;75.23;102280.63;5053465;28;20394;-72
2022/01/01 06:30:34;;;;;;;;;;;;;;;13.18;75.07;102276.13;5050024;28;19921;-72
2022/01/01 06:33:00;;;;;;;;;;;;;;;13.16;74.72;102283.88;5050466;28;19943;-72
2022/01/01 06:35:26;;;;;;;;;;;;;;;13.12;74.81;102271.47;5052767;28;19917;-73
2022/01/01 06:37:51;;;;;;;;;;;;;;;13.13;75.12;102282.41;5051663;28;19983;-72
2022/01/01 06:40:16;;;;;;;;;;;;;;;13.14;74.72;102272.97;5053944;28;20292;-72
2022/01/01 06:42:41;;;;;;;;;;;;;;;13.12;74.55;102283.47;5054721;28;19927;-72
2022/01/01 06:45:06;;;;;;;;;;;;;;;13.12;74.74;102274.28;5048903;28;19924;-72
2022/01/01 06:47:32;;;;;;;;;;;;;;;13.12;74.71;102282.63;5042754;28;20367;-72
2022/01/01 06:49:57;;;;;;;;;;;;;;;13.12;74.86;102285.41;5050969;28;19990;-72
2022/01/01 06:52:22;;;;;;;;;;;;;;;13.12;74.54;102277.91;5046634;28;19921;-72
2022/01/01 06:54:47;;;;;;;;;;;;;;;13.12;74.63;102271.47;5042423;28;20011;-72
2022/01/01 06:57:12;;;;;;;;;;;;;;;13.11;74.56;102280.94;5050881;28;19948;-72
2022/01/01 06:59:37;;;;;;;;;;;;;;;13.09;74.73;102289.56;5052574;28;19928;-72
2022/01/01 07:02:03;;;;;;;;;;;;;;;13.07;74.77;102279.72;5040489;28;19925;-72
2022/01/01 07:04:28;;;;;;;;;;;;;;;13.06;74.46;102297.53;5019196;28;19929;-72
2022/01/01 07:06:53;;;;;;;;;;;;;;;13.05;74.85;102288.31;5031787;28;19928;-72
2022/01/01 07:09:18;;;;;;;;;;;;;;;13.05;74.98;102293.91;5032870;28;20816;-72
2022/01/01 07:11:44;;;;;;;;;;;;;;;13.06;74.48;102303.09;5030740;28;20016;-72
2022/01/01 07:14:11;;;;;;;;;;;;;;;13.04;74.52;102300.53;5033503;28;20011;-72
2022/01/01 07:16:36;;;;;;;;;;;;;;;13.05;74.69;102318.09;5033261;28;19932;-72
2022/01/01 07:19:01;;;;;;;;;;;;;;;13.03;74.90;102310.84;5030307;28;20350;-72
2022/01/01 07:21:26;;;;;;;;;;;;;;;13.04;74.51;102314.47;5027085;28;19975;-72
2022/01/01 07:23:51;;;;;;;;;;;;;;;12.99;74.57;102304.03;5031501;28;19925;-72
2022/01/01 07:26:17;;;;;;;;;;;;;;;12.98;74.40;102304.28;5027457;28;19967;-72
2022/01/01 07:28:42;;;;;;;;;;;;;;;12.98;74.72;102309.84;5026626;28;19921;-73
2022/01/01 07:31:08;;;;;;;;;;;;;;;12.98;74.31;102307.91;5032797;28;19929;-72
2022/01/01 07:33:33;;;;;;;;;;;;;;;12.97;74.62;102314.56;5022768;28;19925;-72
2022/01/01 07:35:58;;;;;;;;;;;;;;;12.98;74.69;102315.44;5034014;28;19921;-72
2022/01/01 07:38:23;;;;;;;;;;;;;;;12.99;74.37;102322.69;5029461;28;20024;-72
2022/01/01 07:40:49;;;;;;;;;;;;;;;12.98;74.57;102323.78;5026582;28;20021;-73
2022/01/01 07:43:15;;;;;;;;;;;;;;;12.97;74.49;102325.72;5027025;28;19929;-72
2022/01/01 07:45:41;;;;;;;;;;;;;;;12.98;74.45;102327.41;5022111;28;19921;-72
2022/01/01 07:48:07;;;;;;;;;;;;;;;12.99;74.29;102333.84;5031311;28;19965;-74
2022/01/01 07:50:32;;;;;;;;;;;;;;;13.00;74.53;102328.03;5030672;28;20364;-72
2022/01/01 07:52:57;;;;;;;;;;;;;;;12.99;74.38;102334.69;5026247;28;19917;-72
2022/01/01 07:55:22;;;;;;;;;;;;;;;13.01;74.20;102337.25;5030532;28;20065;-72
2022/01/01 07:57:48;;;;;;;;;;;;;;;13.00;74.43;102341.09;5024910;28;19936;-72
2022/01/01 08:00:13;;;;;;;;;;;;;;;13.00;74.20;102329.97;5018868;28;19972;-70
2022/01/01 08:02:39;;;;;;;;;;;;;;;12.99;74.49;102336.63;5041074;28;19920;-71
2022/01/01 08:05:05;;;;;;;;;;;;;;;12.97;74.35;102336.03;5053322;28;20020;-71
2022/01/01 08:07:30;;;;;;;;;;;;;;;12.96;74.03;102331.50;5051973;28;20029;-69
2022/01/01 08:09:56;;;;;;;;;;;;;;;12.96;74.29;102335.16;5044505;28;19921;-69
2022/01/01 08:12:21;;;;;;;;;;;;;;;12.97;74.17;102338.81;5050142;28;19929;-67
2022/01/01 08:14:46;;;;;;;;;;;;;;;12.97;74.24;102334.09;5048567;28;19932;-66
2022/01/01 08:17:12;;;;;;;;;;;;;;;12.97;74.10;102341.59;5048957;28;19966;-69
2022/01/01 08:19:38;;;;;;;;;;;;;;;12.97;74.06;102347.19;5047683;28;20059;-66
2022/01/01 08:22:04;;;;;;;;;;;;;;;12.98;74.23;102344.16;5048100;28;19967;-67
2022/01/01 08:24:29;;;;;;;;;;;;;;;13.03;74.10;102333.13;5048418;28;19920;-67
2022/01/01 08:26:55;;;;;;;;;;;;;;;13.05;74.28;102334.81;5044251;28;19921;-67
2022/01/01 08:29:20;;;;;;;;;;;;;;;13.05;74.34;102334.81;5042896;28;19925;-66
2022/01/01 08:31:46;;;;;;;;;;;;;;;13.02;74.33;102338.97;5043206;28;20300;-66
2022/01/01 08:34:11;;;;;;;;;;;;;;;13.03;74.18;102347.06;5043817;28;19925;-66
2022/01/01 08:36:36;;;;;;;;;;;;;;;13.03;74.17;102347.06;5049873;28;19925;-67
2022/01/01 08:39:02;;;;;;;;;;;;;;;13.02;74.00;102338.97;5043358;28;19971;-67
2022/01/01 08:41:27;;;;;;;;;;;;;;;13.02;73.81;102336.16;5050704;28;20330;-67
2022/01/01 08:43:53;;;;;;;;;;;;;;;13.02;74.15;102337.00;5047722;28;19931;-68
2022/01/01 08:46:18;;;;;;;;;;;;;;;13.03;74.28;102335.06;5047532;28;19928;-69
2022/01/01 08:48:43;;;;;;;;;;;;;;;13.02;74.16;102344.53;5039520;28;19925;-68
2022/01/01 08:51:18;;;;;;;;;;;;;;;12.98;74.25;102341.34;5042928;28;19921;-66
2022/01/01 08:53:44;;;;;;;;;;;;;;;12.97;73.85;102353.59;5047193;28;20284;-67
2022/01/01 08:56:10;;;;;;;;;;;;;;;12.94;73.63;102359.63;5042850;28;19928;-67
2022/01/01 08:58:35;;;;;;;;;;;;;;;12.95;74.14;102358.53;5046398;28;19967;-66
2022/01/01 09:01:00;;;;;;;;;;;;;;;12.93;73.77;102335.63;5042254;28;19925;-70
2022/01/01 09:03:26;;;;;;;;;;;;;;;12.94;73.83;102345.69;5041280;28;20510;-71
2022/01/01 09:05:51;;;;;;;;;;;;;;;12.93;73.70;102330.06;5042964;28;20354;-71
2022/01/01 09:08:16;;;;;;;;;;;;;;;12.93;73.80;102338.41;5048000;28;20063;-71
2022/01/01 09:10:41;;;;;;;;;;;;;;;12.92;73.48;102325.56;5045279;28;20015;-71
2022/01/01 09:13:07;;;;;;;;;;;;;;;12.91;74.16;102326.66;5041773;28;20042;-70
2022/01/01 09:15:32;;;;;;;;;;;;;;;12.90;73.78;102324.94;5040059;28;19925;-70
2022/01/01 09:17:57;;;;;;;;;;;;;;;12.93;73.84;102318.91;5043792;28;20003;-71
2022/01/01 09:20:22;;;;;;;;;;;;;;;12.94;74.07;102323.41;5044673;28;19928;-66
2022/01/01 09:22:50;;;;;;;;;;;;;;;12.96;74.07;102324.00;5045109;28;19960;-68
2022/01/01 09:25:15;;;;;;;;;;;;;;;12.96;74.19;102318.41;5048248;28;19927;-66
2022/01/01 09:27:40;;;;;;;;;;;;;;;12.98;73.74;102327.41;5043761;28;19925;-71
2022/01/01 09:30:06;;;;;;;;;;;;;;;12.97;73.62;102320.16;5039055;28;19932;-71
2022/01/01 09:32:32;;;;;;;;;;;;;;;12.97;73.48;102320.16;5039656;28;19952;-70
2022/01/01 09:34:58;;;;;;;;;;;;;;;12.96;73.68;102315.63;5036154;28;20021;-67
2022/01/01 09:37:26;;;;;;;;;;;;;;;12.98;73.67;102321.00;5041384;28;20001;-71
2022/01/01 09:39:51;;;;;;;;;;;;;;;12.99;73.67;102317.97;5041060;28;19964;-70
2022/01/01 09:42:17;;;;;;;;;;;;;;;12.99;73.76;102322.69;5034493;28;19975;-72
2022/01/01 09:44:43;;;;;;;;;;;;;;;12.97;73.40;102328.50;5042436;28;19925;-73
2022/01/01 09:47:09;;;;;;;;;;;;;;;12.94;73.35;102317.81;5039430;28;19925;-72
2022/01/01 09:49:35;;;;;;;;;;;;;;;12.90;73.49;102319.38;5038816;28;19921;-72
2022/01/01 09:52:00;;;;;;;;;;;;;;;12.89;73.56;102305.66;5047315;28;19921;-73
2022/01/01 09:54:25;;;;;;;;;;;;;;;12.87;73.72;102310.63;5037517;28;19932;-73
2022/01/01 09:56:50;;;;;;;;;;;;;;;12.85;73.91;102302.50;5047889;28;19948;-71
2022/01/01 09:59:15;;;;;;;;;;;;;;;12.83;73.86;102301.88;5041012;28;20289;-71
2022/01/01 10:01:41;;;;;;;;;;;;;;;12.81;73.50;102298.50;5043572;28;20307;-71
2022/01/01 10:04:13;;;;;;;;;;;;;;;12.80;73.87;102302.34;5047499;28;20009;-67
2022/01/01 10:06:38;;;;;;;;;;;;;;;12.83;74.18;102296.31;5048014;28;19929;-71
2022/01/01 10:09:04;;;;;;;;;;;;;;;12.85;73.66;102294.16;5044006;28;19998;-70
2022/01/01 10:11:30;;;;;;;;;;;;;;;12.86;73.65;102295.84;5049645;28;19920;-70
2022/01/01 10:13:56;;;;;;;;;;;;;;;12.91;74.02;102284.84;5047327;28;20008;-72
2022/01/01 10:16:21;;;;;;;;;;;;;;;12.88;73.62;102282.50;5048334;28;19925;-64
2022/01/01 10:18:48;;;;;;;;;;;;;;;12.89;73.90;102272.22;5041842;28;19920;-68
2022/01/01 10:21:14;;;;;;;;;;;;;;;12.93;73.54;102274.31;5049427;28;20330;-72
2022/01/01 10:23:44;;;;;;;;;;;;;;;12.94;73.41;102270.44;5045227;28;20092;-71
2022/01/01 10:28:55;;;;;;;;;;;;;;;13.00;73.69;102266.69;5040898;28;20071;-72
2022/01/01 10:31:20;;;;;;;;;;;;;;;13.01;73.74;102265.63;5046655;28;20019;-71
2022/01/01 10:33:46;;;;;;;;;;;;;;;13.01;73.71;102270.38;5043917;28;19928;-72
2022/01/01 10:36:12;;;;;;;;;;;;;;;13.02;73.94;102261.75;5047693;28;19932;-68
2022/01/01 10:38:38;;;;;;;;;;;;;;;13.09;73.58;102258.03;5042888;28;19933;-67
2022/01/01 10:41:05;;;;;;;;;;;;;;;13.15;73.55;102254.28;5051363;28;19924;-68
2022/01/01 10:43:43;;;;;;;;;;;;;;;13.21;73.31;102259.78;5053821;28;19920;-70
2022/01/01 10:46:15;;;;;;;;;;;;;;;13.23;73.41;102252.06;5051924;28;19921;-69
2022/01/01 10:48:53;;;;;;;;;;;;;;;13.28;73.73;102242.97;5045133;28;20359;-70
2022/01/01 10:51:19;;;;;;;;;;;;;;;13.32;73.39;102235.81;5050199;28;19929;-67
2022/01/01 10:53:44;;;;;;;;;;;;;;;13.35;73.33;102238.16;5042874;28;19929;-70
2022/01/01 10:56:17;;;;;;;;;;;;;;;13.40;73.46;102246.66;5047020;28;19921;-69
2022/01/01 10:58:42;;;;;;;;;;;;;;;13.42;73.31;102226.91;5051168;28;19924;-68
2022/01/01 11:01:08;;;;;;;;;;;;;;;13.39;72.88;102216.22;5045554;28;19940;-68
2022/01/01 11:03:37;;;;;;;;;;;;;;;13.38;72.94;102218.16;5043455;28;19965;-64
2022/01/01 11:06:08;;;;;;;;;;;;;;;13.40;73.15;102229.94;5048577;28;19936;-66
2022/01/01 11:08:34;;;;;;;;;;;;;;;13.37;73.12;102222.03;5044743;28;20415;-67
2022/01/01 11:11:00;;;;;;;;;;;;;;;13.36;73.19;102216.69;5045561;28;20399;-65
2022/01/01 11:13:26;;;;;;;;;;;;;;;13.36;73.22;102236.19;5049386;28;19927;-65
2022/01/01 11:15:51;;;;;;;;;;;;;;;13.37;73.03;102226.78;5041693;28;20019;-67
2022/01/01 11:18:17;;;;;;;;;;;;;;;13.37;73.20;102227.63;5041375;28;19978;-65
2022/01/01 11:20:43;;;;;;;;;;;;;;;13.37;73.32;102224.81;5044487;28;19924;-66
2022/01/01 11:23:10;;;;;;;;;;;;;;;13.40;73.15;102218.78;5045630;28;20338;-66
2022/01/01 11:25:36;;;;;;;;;;;;;;;13.43;73.14;102223.00;5052925;28;19974;-68
2022/01/01 11:28:02;;;;;;;;;;;;;;;13.45;72.92;102210.53;5048892;28;19928;-67
2022/01/01 11:30:29;;;;;;;;;;;;;;;13.47;73.21;102210.28;5045334;28;20419;-67
2022/01/01 11:33:02;;;;;;;;;;;;;;;13.49;72.93;102208.97;5044980;28;19924;-69
2022/01/01 11:35:30;;;;;;;;;;;;;;;13.54;73.17;102201.81;5042879;28;20372;-74
2022/01/01 11:38:01;;;;;;;;;;;;;;;13.58;72.76;102203.03;5051843;28;20265;-74
2022/01/01 11:40:27;;;;;;;;;;;;;;;13.61;73.06;102210.94;5052212;28;19948;-74
2022/01/01 11:42:52;;;;;;;;;;;;;;;13.62;73.09;102216.25;5050272;28;19944;-73
2022/01/01 11:45:47;;;;;;;;;;;;;;;13.64;73.02;102225.25;5042190;28;20381;-73
2022/01/01 11:48:31;;;;;;;;;;;;;;;13.65;73.18;102226.09;5034049;28;19929;-73
2022/01/01 11:50:56;;;;;;;;;;;;;;;13.65;72.72;102226.09;5047165;28;19925;-72
2022/01/01 11:53:29;;;;;;;;;;;;;;;13.64;72.68;102216.88;5050278;28;19931;-73
2022/01/01 11:56:04;;;;;;;;;;;;;;;13.63;72.77;102211.53;5041158;28;19932;-72
2022/01/01 11:58:49;;;;;;;;;;;;;;;13.65;72.88;102203.78;5036708;28;20384;-66
2022/01/01 12:01:15;;;;;;;;;;;;;;;13.65;72.93;102201.84;5042946;28;20391;-66
2022/01/01 12:03:50;;;;;;;;;;;;;;;13.64;72.89;102193.72;5044095;28;19929;-65
2022/01/01 12:06:16;;;;;;;;;;;;;;;13.61;72.71;102196.97;5043324;28;20407;-66
2022/01/01 12:08:43;;;;;;;;;;;;;;;13.62;73.09;102193.09;5047616;28;19925;-66
2022/01/01 12:11:08;;;;;;;;;;;;;;;13.65;72.98;102192.63;5048645;28;19920;-66
2022/01/01 12:13:38;;;;;;;;;;;;;;;13.63;72.71;102194.78;5046676;28;19927;-66
2022/01/01 12:16:19;;;;;;;;;;;;;;;13.62;72.92;102199.53;5044077;28;19935;-65
2022/01/01 12:18:44;;;;;;;;;;;;;;;13.63;72.67;102197.56;5041622;28;19920;-66
2022/01/01 12:21:18;;;;;;;;;;;;;;;13.61;72.70;102188.63;5049567;28;19928;-66
2022/01/01 12:23:46;;;;;;;;;;;;;;;13.60;72.68;102184.13;5042905;28;20402;-66
2022/01/01 12:26:14;;;;;;;;;;;;;;;13.61;73.07;102178.31;5049264;28;19965;-66
2022/01/01 12:28:39;;;;;;;;;;;;;;;13.64;72.63;102177.81;5048338;28;19966;-66
2022/01/01 12:31:05;;;;;;;;;;;;;;;13.64;72.79;102176.97;5047249;28;19920;-66
2022/01/01 12:33:48;;;;;;;;;;;;;;;13.65;72.98;102173.09;5046476;28;19920;-65
2022/01/01 12:36:18;;;;;;;;;;;;;;;13.65;72.67;102173.94;5045664;28;19917;-65
2022/01/01 12:38:47;;;;;;;;;;;;;;;13.67;72.75;102168.09;5045964;28;19925;-65